POGODA: Poland

Lotnisko: Gdansk-Rebiechowo

METAR KOD: EPGD


METAR: EPGD 260330Z 22005KT 180V280 3000 BR OVC005 05/04 Q1024


BLOK
Pogoda METAR
260330Z
Dzien: 26, Godzina: 03:30 UTC.
22005KT
Wiatr z kierunku 220, o predkosci 9 km/h
180V280
Wiatr zmienny pomiedzy 180 i 280
3000
Widzialnosc pozioma 3000 m.
BR
zamglenia
OVC005
calkowite zachmurzenie o podstawie: 150 metrow
05/04
Temperatura: powietrze 5°C, punkt rosy 4°C . Wilgotnosc wzgledna 80 %
Q1024
Cisnienie: 1024 hPa

Pogoda na innym lotnisku

Pogoda Gdansk-Rebiechowo WEATHER Poland  
Pogoda Katowice WEATHER Poland  
Pogoda Krakow WEATHER Poland  
Pogoda Poznan WEATHER Poland  
Pogoda Rzeszow-Jasionka WEATHER Poland  
Pogoda Szczecin WEATHER Poland  
Pogoda Warszawa-Okecie WEATHER Poland  
Pogoda Wroclaw Ii WEATHER Poland  

Pogoda w inny kraju

Strona startowa

(C) by GREGOR 2007
Ogłoszenia Towarzyskie